sensor_id;sensor_type;location;lat;lon;timestamp;pressure;altitude;pressure_sealevel;temperature;humidity
59391;BME280;53405;57.012;40.984;2022-07-29T00:00:12;99856.63;;;20.68;87.03
59391;BME280;53405;57.012;40.984;2022-07-29T00:02:59;99856.88;;;20.67;86.34
59391;BME280;53405;57.012;40.984;2022-07-29T00:05:47;99850.34;;;20.57;86.07
59391;BME280;53405;57.012;40.984;2022-07-29T00:08:35;99859.00;;;20.87;84.91
59391;BME280;53405;57.012;40.984;2022-07-29T00:11:22;99851.53;;;20.67;86.70
59391;BME280;53405;57.012;40.984;2022-07-29T00:14:10;99843.66;;;20.60;85.94
59391;BME280;53405;57.012;40.984;2022-07-29T00:16:58;99863.06;;;20.67;85.81
59391;BME280;53405;57.012;40.984;2022-07-29T00:19:45;99847.81;;;20.68;85.39
59391;BME280;53405;57.012;40.984;2022-07-29T00:22:32;99849.22;;;20.53;87.19
59391;BME280;53405;57.012;40.984;2022-07-29T00:25:20;99845.41;;;20.49;86.43
59391;BME280;53405;57.012;40.984;2022-07-29T00:28:07;99831.56;;;20.35;86.57
59391;BME280;53405;57.012;40.984;2022-07-29T00:30:55;99839.19;;;20.44;87.12
59391;BME280;53405;57.012;40.984;2022-07-29T00:33:42;99793.69;;;20.21;86.64
59391;BME280;53405;57.012;40.984;2022-07-29T00:36:30;99825.94;;;20.54;86.11
59391;BME280;53405;57.012;40.984;2022-07-29T00:39:17;99819.22;;;20.51;86.19
59391;BME280;53405;57.012;40.984;2022-07-29T00:42:05;99810.00;;;20.42;87.21
59391;BME280;53405;57.012;40.984;2022-07-29T00:44:53;99804.66;;;20.42;86.63
59391;BME280;53405;57.012;40.984;2022-07-29T00:47:40;99799.94;;;20.49;85.42
59391;BME280;53405;57.012;40.984;2022-07-29T00:50:28;99817.94;;;20.37;86.69
59391;BME280;53405;57.012;40.984;2022-07-29T00:53:15;99800.16;;;20.26;86.95
59391;BME280;53405;57.012;40.984;2022-07-29T00:56:03;99816.22;;;20.48;85.96
59391;BME280;53405;57.012;40.984;2022-07-29T00:58:51;99810.25;;;20.40;85.95
59391;BME280;53405;57.012;40.984;2022-07-29T01:01:39;99816.09;;;20.37;86.14
59391;BME280;53405;57.012;40.984;2022-07-29T01:04:26;99817.94;;;20.37;86.60
59391;BME280;53405;57.012;40.984;2022-07-29T01:07:14;99809.56;;;20.28;87.11
59391;BME280;53405;57.012;40.984;2022-07-29T01:10:03;99804.28;;;20.33;86.39
59391;BME280;53405;57.012;40.984;2022-07-29T01:12:52;99819.47;;;20.11;87.46
59391;BME280;53405;57.012;40.984;2022-07-29T01:15:54;99808.41;;;20.24;86.49
59391;BME280;53405;57.012;40.984;2022-07-29T01:18:46;99816.31;;;20.14;86.93
59391;BME280;53405;57.012;40.984;2022-07-29T01:21:53;99816.63;;;20.17;87.12
59391;BME280;53405;57.012;40.984;2022-07-29T01:25:10;99806.91;;;20.11;87.83
59391;BME280;53405;57.012;40.984;2022-07-29T01:30:51;99814.41;;;20.31;86.91
59391;BME280;53405;57.012;40.984;2022-07-29T01:33:43;99804.88;;;20.18;87.26
59391;BME280;53405;57.012;40.984;2022-07-29T01:36:48;99795.25;;;20.17;86.97
59391;BME280;53405;57.012;40.984;2022-07-29T01:39:38;99806.22;;;20.21;87.23
59391;BME280;53405;57.012;40.984;2022-07-29T01:42:43;99800.56;;;20.34;86.33
59391;BME280;53405;57.012;40.984;2022-07-29T01:45:43;99806.63;;;20.30;86.50
59391;BME280;53405;57.012;40.984;2022-07-29T01:48:53;99801.16;;;20.42;85.88
59391;BME280;53405;57.012;40.984;2022-07-29T01:52:10;99798.25;;;20.43;84.55
59391;BME280;53405;57.012;40.984;2022-07-29T01:55:04;99800.38;;;20.41;84.37
59391;BME280;53405;57.012;40.984;2022-07-29T01:57:53;99808.34;;;20.58;83.58
59391;BME280;53405;57.012;40.984;2022-07-29T02:00:44;99806.22;;;20.60;84.23
59391;BME280;53405;57.012;40.984;2022-07-29T02:03:34;99809.38;;;20.57;84.25
59391;BME280;53405;57.012;40.984;2022-07-29T02:06:24;99805.22;;;20.44;85.02
59391;BME280;53405;57.012;40.984;2022-07-29T02:09:14;99802.34;;;20.51;85.03
59391;BME280;53405;57.012;40.984;2022-07-29T02:12:03;99812.09;;;20.40;85.92
59391;BME280;53405;57.012;40.984;2022-07-29T02:14:54;99815.97;;;20.49;84.84
59391;BME280;53405;57.012;40.984;2022-07-29T02:17:50;99821.69;;;20.36;86.21
59391;BME280;53405;57.012;40.984;2022-07-29T02:20:39;99818.72;;;20.32;86.73
59391;BME280;53405;57.012;40.984;2022-07-29T02:23:31;99848.38;;;20.31;87.32
59391;BME280;53405;57.012;40.984;2022-07-29T02:26:21;99826.50;;;20.17;89.18
59391;BME280;53405;57.012;40.984;2022-07-29T02:29:12;99833.88;;;20.10;91.26
59391;BME280;53405;57.012;40.984;2022-07-29T02:32:03;99813.00;;;19.90;90.20
59391;BME280;53405;57.012;40.984;2022-07-29T02:34:51;99811.94;;;19.91;91.77
59391;BME280;53405;57.012;40.984;2022-07-29T02:37:40;99805.31;;;19.93;92.04
59391;BME280;53405;57.012;40.984;2022-07-29T02:40:28;99807.25;;;19.98;92.31
59391;BME280;53405;57.012;40.984;2022-07-29T02:43:17;99812.75;;;19.91;92.58
59391;BME280;53405;57.012;40.984;2022-07-29T02:46:08;99803.13;;;19.90;91.63
59391;BME280;53405;57.012;40.984;2022-07-29T02:49:04;99807.16;;;19.93;92.69
59391;BME280;53405;57.012;40.984;2022-07-29T02:52:06;99790.34;;;19.92;92.21
59391;BME280;53405;57.012;40.984;2022-07-29T02:58:05;99790.09;;;19.94;92.26
59391;BME280;53405;57.012;40.984;2022-07-29T03:01:15;99770.25;;;19.90;92.10
59391;BME280;53405;57.012;40.984;2022-07-29T03:04:08;99779.88;;;20.08;92.22
59391;BME280;53405;57.012;40.984;2022-07-29T03:06:59;99763.53;;;20.04;91.89
59391;BME280;53405;57.012;40.984;2022-07-29T03:09:49;99768.38;;;20.07;91.71
59391;BME280;53405;57.012;40.984;2022-07-29T03:12:37;99777.50;;;20.11;91.75
59391;BME280;53405;57.012;40.984;2022-07-29T03:15:25;99776.03;;;20.20;91.00
59391;BME280;53405;57.012;40.984;2022-07-29T03:18:14;99775.00;;;20.04;91.87
59391;BME280;53405;57.012;40.984;2022-07-29T03:21:03;99782.59;;;20.13;91.89
59391;BME280;53405;57.012;40.984;2022-07-29T03:23:50;99791.03;;;20.21;91.20
59391;BME280;53405;57.012;40.984;2022-07-29T03:26:38;99769.97;;;20.08;90.90
59391;BME280;53405;57.012;40.984;2022-07-29T03:29:26;99795.97;;;20.13;91.21
59391;BME280;53405;57.012;40.984;2022-07-29T03:32:14;99793.13;;;20.19;91.17
59391;BME280;53405;57.012;40.984;2022-07-29T03:35:03;99795.41;;;20.11;91.22
59391;BME280;53405;57.012;40.984;2022-07-29T03:37:51;99812.22;;;20.28;90.26
59391;BME280;53405;57.012;40.984;2022-07-29T03:40:53;99819.22;;;20.29;89.99
59391;BME280;53405;57.012;40.984;2022-07-29T03:43:42;99840.09;;;20.32;90.79
59391;BME280;53405;57.012;40.984;2022-07-29T03:46:31;99848.81;;;20.45;90.08
59391;BME280;53405;57.012;40.984;2022-07-29T03:49:21;99845.28;;;20.39;90.05
59391;BME280;53405;57.012;40.984;2022-07-29T03:52:11;99825.78;;;20.21;89.81
59391;BME280;53405;57.012;40.984;2022-07-29T03:54:58;99855.91;;;20.34;89.78
59391;BME280;53405;57.012;40.984;2022-07-29T03:57:46;99851.28;;;20.29;89.32
59391;BME280;53405;57.012;40.984;2022-07-29T04:00:35;99861.25;;;20.34;88.74
59391;BME280;53405;57.012;40.984;2022-07-29T04:03:23;99867.72;;;20.21;90.38
59391;BME280;53405;57.012;40.984;2022-07-29T04:06:11;99871.84;;;20.29;89.39
59391;BME280;53405;57.012;40.984;2022-07-29T04:08:59;99873.91;;;20.21;90.00
59391;BME280;53405;57.012;40.984;2022-07-29T04:11:46;99873.78;;;20.33;89.18
59391;BME280;53405;57.012;40.984;2022-07-29T04:14:35;99881.50;;;20.30;88.92
59391;BME280;53405;57.012;40.984;2022-07-29T04:17:22;99874.38;;;20.18;90.22
59391;BME280;53405;57.012;40.984;2022-07-29T04:20:10;99869.66;;;20.26;89.95
59391;BME280;53405;57.012;40.984;2022-07-29T04:23:00;99863.94;;;20.17;90.25
59391;BME280;53405;57.012;40.984;2022-07-29T04:25:47;99869.09;;;20.24;89.71
59391;BME280;53405;57.012;40.984;2022-07-29T04:28:35;99876.31;;;20.23;89.86
59391;BME280;53405;57.012;40.984;2022-07-29T04:31:22;99862.31;;;20.16;90.02
59391;BME280;53405;57.012;40.984;2022-07-29T04:34:12;99866.84;;;20.15;90.16
59391;BME280;53405;57.012;40.984;2022-07-29T04:37:00;99867.41;;;20.17;90.54
59391;BME280;53405;57.012;40.984;2022-07-29T04:39:48;99872.50;;;20.19;90.59
59391;BME280;53405;57.012;40.984;2022-07-29T04:42:35;99867.63;;;20.33;89.75
59391;BME280;53405;57.012;40.984;2022-07-29T04:45:23;99861.41;;;20.27;90.15
59391;BME280;53405;57.012;40.984;2022-07-29T04:48:11;99875.25;;;20.24;90.49
59391;BME280;53405;57.012;40.984;2022-07-29T04:50:58;99872.03;;;20.22;90.83
59391;BME280;53405;57.012;40.984;2022-07-29T04:53:46;99876.63;;;20.27;90.71
59391;BME280;53405;57.012;40.984;2022-07-29T04:56:33;99873.66;;;20.23;90.78
59391;BME280;53405;57.012;40.984;2022-07-29T04:59:21;99877.31;;;20.17;90.69
59391;BME280;53405;57.012;40.984;2022-07-29T05:02:09;99868.78;;;20.20;91.18
59391;BME280;53405;57.012;40.984;2022-07-29T05:04:56;99871.06;;;20.11;91.13
59391;BME280;53405;57.012;40.984;2022-07-29T05:07:44;99869.03;;;20.18;91.47
59391;BME280;53405;57.012;40.984;2022-07-29T05:10:31;99872.50;;;20.19;91.36
59391;BME280;53405;57.012;40.984;2022-07-29T05:13:19;99873.06;;;20.38;90.23
59391;BME280;53405;57.012;40.984;2022-07-29T05:16:08;99877.00;;;20.35;89.62
59391;BME280;53405;57.012;40.984;2022-07-29T05:18:55;99869.28;;;20.17;91.24
59391;BME280;53405;57.012;40.984;2022-07-29T05:21:44;99873.47;;;20.13;91.34
59391;BME280;53405;57.012;40.984;2022-07-29T05:24:32;99883.63;;;20.28;90.86
59391;BME280;53405;57.012;40.984;2022-07-29T05:27:19;99878.81;;;20.30;91.24
59391;BME280;53405;57.012;40.984;2022-07-29T05:30:07;99883.38;;;20.29;90.00
59391;BME280;53405;57.012;40.984;2022-07-29T05:32:55;99869.28;;;20.17;89.97
59391;BME280;53405;57.012;40.984;2022-07-29T05:35:43;99876.56;;;20.21;88.43
59391;BME280;53405;57.012;40.984;2022-07-29T05:38:30;99870.81;;;19.96;88.51
59391;BME280;53405;57.012;40.984;2022-07-29T05:41:18;99894.22;;;20.06;88.54
59391;BME280;53405;57.012;40.984;2022-07-29T05:44:06;99881.97;;;19.93;88.96
59391;BME280;53405;57.012;40.984;2022-07-29T05:46:54;99894.78;;;20.08;88.08
59391;BME280;53405;57.012;40.984;2022-07-29T05:49:41;99873.47;;;19.96;87.62
59391;BME280;53405;57.012;40.984;2022-07-29T05:52:29;99905.81;;;20.11;87.83
59391;BME280;53405;57.012;40.984;2022-07-29T05:55:16;99900.78;;;19.98;87.90
59391;BME280;53405;57.012;40.984;2022-07-29T05:58:04;99907.34;;;19.90;89.02
59391;BME280;53405;57.012;40.984;2022-07-29T06:00:51;99909.03;;;19.96;89.26
59391;BME280;53405;57.012;40.984;2022-07-29T06:03:39;99916.00;;;19.97;89.21
59391;BME280;53405;57.012;40.984;2022-07-29T06:06:29;99909.94;;;20.02;88.69
59391;BME280;53405;57.012;40.984;2022-07-29T06:09:16;99907.13;;;20.09;88.19
59391;BME280;53405;57.012;40.984;2022-07-29T06:12:04;99915.13;;;20.09;85.74
59391;BME280;53405;57.012;40.984;2022-07-29T06:14:52;99914.88;;;19.93;87.08
59391;BME280;53405;57.012;40.984;2022-07-29T06:17:40;99902.56;;;19.92;86.36
59391;BME280;53405;57.012;40.984;2022-07-29T06:20:28;99923.44;;;19.95;87.04
59391;BME280;53405;57.012;40.984;2022-07-29T06:23:18;99917.44;;;19.88;88.12
59391;BME280;53405;57.012;40.984;2022-07-29T06:26:06;99926.31;;;20.06;87.13
59391;BME280;53405;57.012;40.984;2022-07-29T06:28:53;99925.00;;;20.08;87.16
59391;BME280;53405;57.012;40.984;2022-07-29T06:31:41;99921.59;;;20.13;86.62
59391;BME280;53405;57.012;40.984;2022-07-29T06:34:28;99910.09;;;20.12;86.35
59391;BME280;53405;57.012;40.984;2022-07-29T06:37:16;99926.28;;;20.22;85.32
59391;BME280;53405;57.012;40.984;2022-07-29T06:40:04;99924.94;;;20.20;84.08
59391;BME280;53405;57.012;40.984;2022-07-29T06:43:19;99924.28;;;20.13;84.15
59391;BME280;53405;57.012;40.984;2022-07-29T06:46:08;99928.63;;;20.02;85.68
59391;BME280;53405;57.012;40.984;2022-07-29T06:48:56;99911.16;;;20.11;84.13
59391;BME280;53405;57.012;40.984;2022-07-29T06:51:44;99936.41;;;20.03;84.77
59391;BME280;53405;57.012;40.984;2022-07-29T06:54:31;99938.44;;;19.96;85.61
59391;BME280;53405;57.012;40.984;2022-07-29T06:57:19;99947.25;;;19.97;84.59
59391;BME280;53405;57.012;40.984;2022-07-29T07:00:07;99945.16;;;19.82;85.63
59391;BME280;53405;57.012;40.984;2022-07-29T07:02:55;99934.72;;;19.68;86.20
59391;BME280;53405;57.012;40.984;2022-07-29T07:05:44;99949.66;;;19.81;85.35
59391;BME280;53405;57.012;40.984;2022-07-29T07:08:32;99935.28;;;19.71;86.12
59391;BME280;53405;57.012;40.984;2022-07-29T07:11:20;99946.06;;;19.76;85.29
59391;BME280;53405;57.012;40.984;2022-07-29T07:14:07;99956.16;;;19.74;85.28
59391;BME280;53405;57.012;40.984;2022-07-29T07:16:55;99954.69;;;19.66;85.32
59391;BME280;53405;57.012;40.984;2022-07-29T07:19:42;99952.81;;;19.78;84.82
59391;BME280;53405;57.012;40.984;2022-07-29T07:22:30;99948.63;;;19.82;84.52
59391;BME280;53405;57.012;40.984;2022-07-29T07:25:20;99957.78;;;19.75;84.66
59391;BME280;53405;57.012;40.984;2022-07-29T07:28:08;99948.38;;;19.72;86.00
59391;BME280;53405;57.012;40.984;2022-07-29T07:30:56;99958.81;;;19.85;84.91
59391;BME280;53405;57.012;40.984;2022-07-29T07:33:43;99957.88;;;19.92;84.30
59391;BME280;53405;57.012;40.984;2022-07-29T07:36:31;99943.59;;;19.86;84.21
59391;BME280;53405;57.012;40.984;2022-07-29T07:39:19;99958.91;;;19.91;83.57
59391;BME280;53405;57.012;40.984;2022-07-29T07:42:06;99957.03;;;19.91;82.93
59391;BME280;53405;57.012;40.984;2022-07-29T07:44:54;99959.22;;;19.94;83.71
59391;BME280;53405;57.012;40.984;2022-07-29T07:47:58;99958.38;;;20.06;84.25
59391;BME280;53405;57.012;40.984;2022-07-29T07:50:45;99964.13;;;20.14;82.13
59391;BME280;53405;57.012;40.984;2022-07-29T07:53:34;99965.03;;;20.20;81.21
59391;BME280;53405;57.012;40.984;2022-07-29T07:56:21;99954.88;;;20.05;82.51
59391;BME280;53405;57.012;40.984;2022-07-29T07:59:09;99959.19;;;20.23;81.48
59391;BME280;53405;57.012;40.984;2022-07-29T08:01:56;99971.91;;;20.33;80.72
59391;BME280;53405;57.012;40.984;2022-07-29T08:04:50;99977.03;;;20.34;81.37
59391;BME280;53405;57.012;40.984;2022-07-29T08:07:37;99964.88;;;20.27;82.13
59391;BME280;53405;57.012;40.984;2022-07-29T08:10:25;99988.34;;;20.42;80.23
59391;BME280;53405;57.012;40.984;2022-07-29T08:13:32;99985.38;;;20.38;81.00
59391;BME280;53405;57.012;40.984;2022-07-29T08:16:19;99989.75;;;20.61;79.57
59391;BME280;53405;57.012;40.984;2022-07-29T08:19:08;99992.34;;;20.73;79.05
59391;BME280;53405;57.012;40.984;2022-07-29T08:21:55;99996.88;;;20.55;78.44
59391;BME280;53405;57.012;40.984;2022-07-29T08:24:43;99998.41;;;20.34;79.03
59391;BME280;53405;57.012;40.984;2022-07-29T08:27:30;99987.66;;;20.00;80.55
59391;BME280;53405;57.012;40.984;2022-07-29T08:30:28;99998.91;;;19.85;81.41
59391;BME280;53405;57.012;40.984;2022-07-29T08:33:16;99993.00;;;19.83;81.69
59391;BME280;53405;57.012;40.984;2022-07-29T08:36:05;99988.81;;;20.04;80.46
59391;BME280;53405;57.012;40.984;2022-07-29T08:38:53;99999.59;;;20.10;80.45
59391;BME280;53405;57.012;40.984;2022-07-29T08:41:41;99995.06;;;20.10;79.95
59391;BME280;53405;57.012;40.984;2022-07-29T08:44:31;100009.41;;;20.21;80.16
59391;BME280;53405;57.012;40.984;2022-07-29T08:47:19;100024.16;;;20.24;80.08
59391;BME280;53405;57.012;40.984;2022-07-29T08:50:08;100027.06;;;20.22;79.60
59391;BME280;53405;57.012;40.984;2022-07-29T08:52:56;100025.84;;;20.13;78.79
59391;BME280;53405;57.012;40.984;2022-07-29T08:55:48;100038.97;;;20.14;79.01
59391;BME280;53405;57.012;40.984;2022-07-29T08:58:35;100010.47;;;19.91;79.96
59391;BME280;53405;57.012;40.984;2022-07-29T09:01:25;100017.06;;;20.00;80.23
59391;BME280;53405;57.012;40.984;2022-07-29T09:04:15;100035.06;;;20.05;80.52
59391;BME280;53405;57.012;40.984;2022-07-29T09:07:04;100036.84;;;20.16;80.22
59391;BME280;53405;57.012;40.984;2022-07-29T09:09:53;100039.97;;;20.25;80.80
59391;BME280;53405;57.012;40.984;2022-07-29T09:12:42;100036.41;;;20.36;78.27
59391;BME280;53405;57.012;40.984;2022-07-29T09:15:29;100021.88;;;20.15;78.57
59391;BME280;53405;57.012;40.984;2022-07-29T09:18:38;100033.66;;;20.31;79.12
59391;BME280;53405;57.012;40.984;2022-07-29T09:21:40;100037.22;;;20.37;78.19
59391;BME280;53405;57.012;40.984;2022-07-29T09:24:47;100044.50;;;20.42;77.45
59391;BME280;53405;57.012;40.984;2022-07-29T09:27:34;100043.22;;;20.44;76.53
59391;BME280;53405;57.012;40.984;2022-07-29T09:30:22;100022.06;;;20.26;76.25
59391;BME280;53405;57.012;40.984;2022-07-29T09:33:10;100046.88;;;20.55;76.28
59391;BME280;53405;57.012;40.984;2022-07-29T09:36:06;100050.88;;;20.86;75.95
59391;BME280;53405;57.012;40.984;2022-07-29T09:38:59;100054.81;;;21.18;73.34
59391;BME280;53405;57.012;40.984;2022-07-29T09:41:50;100035.19;;;21.12;74.17
59391;BME280;53405;57.012;40.984;2022-07-29T09:47:44;100064.75;;;20.83;75.03
59391;BME280;53405;57.012;40.984;2022-07-29T09:53:35;100065.38;;;20.56;74.52
59391;BME280;53405;57.012;40.984;2022-07-29T09:56:39;100062.16;;;20.26;76.29
59391;BME280;53405;57.012;40.984;2022-07-29T09:59:27;100059.47;;;20.09;77.43
59391;BME280;53405;57.012;40.984;2022-07-29T10:02:15;100059.81;;;20.00;78.43
59391;BME280;53405;57.012;40.984;2022-07-29T10:05:21;100064.59;;;20.27;76.80
59391;BME280;53405;57.012;40.984;2022-07-29T10:08:10;100066.56;;;20.49;75.62
59391;BME280;53405;57.012;40.984;2022-07-29T10:11:13;100061.91;;;20.73;75.70
59391;BME280;53405;57.012;40.984;2022-07-29T10:14:03;100060.63;;;21.32;74.25
59391;BME280;53405;57.012;40.984;2022-07-29T10:16:51;100067.41;;;21.78;71.22
59391;BME280;53405;57.012;40.984;2022-07-29T10:19:39;100061.00;;;22.07;69.96
59391;BME280;53405;57.012;40.984;2022-07-29T10:22:27;100067.78;;;22.14;70.18
59391;BME280;53405;57.012;40.984;2022-07-29T10:25:35;100062.63;;;22.30;69.31
59391;BME280;53405;57.012;40.984;2022-07-29T10:28:23;100067.59;;;22.81;66.61
59391;BME280;53405;57.012;40.984;2022-07-29T10:31:21;100076.84;;;23.00;65.79
59391;BME280;53405;57.012;40.984;2022-07-29T10:34:20;100058.59;;;24.24;62.37
59391;BME280;53405;57.012;40.984;2022-07-29T10:46:51;100056.78;;;25.67;57.36
59391;BME280;53405;57.012;40.984;2022-07-29T10:49:55;100051.03;;;25.89;54.72
59391;BME280;53405;57.012;40.984;2022-07-29T10:52:53;100073.38;;;25.94;55.19
59391;BME280;53405;57.012;40.984;2022-07-29T10:55:43;100067.19;;;25.99;55.53
59391;BME280;53405;57.012;40.984;2022-07-29T10:58:34;100072.22;;;25.56;55.90
59391;BME280;53405;57.012;40.984;2022-07-29T11:01:29;100083.00;;;25.51;56.21
59391;BME280;53405;57.012;40.984;2022-07-29T11:14:08;100069.75;;;27.66;48.52
59391;BME280;53405;57.012;40.984;2022-07-29T11:17:04;100068.75;;;28.38;46.50
59391;BME280;53405;57.012;40.984;2022-07-29T11:26:18;100071.03;;;25.83;52.18
59391;BME280;53405;57.012;40.984;2022-07-29T11:29:21;100076.06;;;27.37;47.83
59391;BME280;53405;57.012;40.984;2022-07-29T11:32:13;100072.22;;;27.14;48.21
59391;BME280;53405;57.012;40.984;2022-07-29T11:35:21;100073.94;;;26.41;49.20
59391;BME280;53405;57.012;40.984;2022-07-29T11:41:25;100070.38;;;26.46;48.97
59391;BME280;53405;57.012;40.984;2022-07-29T11:44:13;100071.16;;;27.39;47.56
59391;BME280;53405;57.012;40.984;2022-07-29T11:47:02;100067.84;;;27.67;45.32
59391;BME280;53405;57.012;40.984;2022-07-29T11:49:51;100080.69;;;27.32;47.09
59391;BME280;53405;57.012;40.984;2022-07-29T11:52:41;100057.03;;;27.86;44.89
59391;BME280;53405;57.012;40.984;2022-07-29T11:55:37;100075.75;;;27.82;44.22
59391;BME280;53405;57.012;40.984;2022-07-29T11:58:25;100076.66;;;26.76;46.82
59391;BME280;53405;57.012;40.984;2022-07-29T12:01:14;100071.31;;;25.76;48.75
59391;BME280;53405;57.012;40.984;2022-07-29T12:04:07;100073.91;;;25.36;49.64
59391;BME280;53405;57.012;40.984;2022-07-29T12:06:55;100071.75;;;26.04;47.48
59391;BME280;53405;57.012;40.984;2022-07-29T12:10:03;100081.09;;;27.44;43.18
59391;BME280;53405;57.012;40.984;2022-07-29T12:12:51;100070.72;;;27.75;40.66
59391;BME280;53405;57.012;40.984;2022-07-29T12:15:40;100078.78;;;28.19;41.20
59391;BME280;53405;57.012;40.984;2022-07-29T12:18:28;100063.66;;;28.51;38.84
59391;BME280;53405;57.012;40.984;2022-07-29T12:21:15;100061.47;;;28.01;41.43
59391;BME280;53405;57.012;40.984;2022-07-29T12:24:03;100071.22;;;27.34;40.27
59391;BME280;53405;57.012;40.984;2022-07-29T12:26:59;100055.66;;;26.62;41.52
59391;BME280;53405;57.012;40.984;2022-07-29T12:30:01;100058.47;;;26.52;42.78
59391;BME280;53405;57.012;40.984;2022-07-29T12:32:53;100067.22;;;26.73;42.72
59391;BME280;53405;57.012;40.984;2022-07-29T12:35:44;100056.06;;;26.80;42.94
59391;BME280;53405;57.012;40.984;2022-07-29T12:38:40;100071.53;;;26.74;42.28
59391;BME280;53405;57.012;40.984;2022-07-29T12:41:28;100048.00;;;26.40;43.13
59391;BME280;53405;57.012;40.984;2022-07-29T12:44:17;100069.81;;;26.09;42.57
59391;BME280;53405;57.012;40.984;2022-07-29T12:47:04;100065.34;;;25.89;45.57
59391;BME280;53405;57.012;40.984;2022-07-29T12:50:11;100062.16;;;25.77;44.27
59391;BME280;53405;57.012;40.984;2022-07-29T12:53:12;100062.53;;;25.55;44.08
59391;BME280;53405;57.012;40.984;2022-07-29T12:56:01;100066.22;;;25.69;44.52
59391;BME280;53405;57.012;40.984;2022-07-29T12:58:54;100062.25;;;25.56;44.14
59391;BME280;53405;57.012;40.984;2022-07-29T13:01:42;100062.78;;;25.58;43.86
59391;BME280;53405;57.012;40.984;2022-07-29T13:04:31;100079.59;;;25.30;44.28
59391;BME280;53405;57.012;40.984;2022-07-29T13:07:26;100077.75;;;24.99;46.50
59391;BME280;53405;57.012;40.984;2022-07-29T13:10:17;100072.59;;;25.08;45.97
59391;BME280;53405;57.012;40.984;2022-07-29T13:13:12;100065.59;;;25.02;45.72
59391;BME280;53405;57.012;40.984;2022-07-29T13:16:07;100079.34;;;24.95;46.12
59391;BME280;53405;57.012;40.984;2022-07-29T13:19:10;100072.63;;;25.03;45.22
59391;BME280;53405;57.012;40.984;2022-07-29T13:21:58;100077.47;;;25.01;45.78
59391;BME280;53405;57.012;40.984;2022-07-29T13:24:47;100058.38;;;24.71;45.38
59391;BME280;53405;57.012;40.984;2022-07-29T13:27:36;100085.53;;;24.54;46.67
59391;BME280;53405;57.012;40.984;2022-07-29T13:30:25;100089.56;;;24.37;46.42
59391;BME280;53405;57.012;40.984;2022-07-29T13:33:14;100074.75;;;24.24;46.78
59391;BME280;53405;57.012;40.984;2022-07-29T13:36:02;100086.84;;;24.16;47.38
59391;BME280;53405;57.012;40.984;2022-07-29T13:38:49;100086.00;;;24.10;47.72
59391;BME280;53405;57.012;40.984;2022-07-29T13:41:37;100087.09;;;24.09;47.70
59391;BME280;53405;57.012;40.984;2022-07-29T13:44:24;100088.69;;;24.00;48.41
59391;BME280;53405;57.012;40.984;2022-07-29T13:47:12;100079.25;;;23.97;47.84
59391;BME280;53405;57.012;40.984;2022-07-29T13:50:01;100069.59;;;24.02;47.75
59391;BME280;53405;57.012;40.984;2022-07-29T13:52:49;100086.56;;;24.28;46.52
59391;BME280;53405;57.012;40.984;2022-07-29T13:55:38;100093.31;;;24.25;47.53
59391;BME280;53405;57.012;40.984;2022-07-29T13:58:25;100068.00;;;24.21;46.69
59391;BME280;53405;57.012;40.984;2022-07-29T14:01:13;100062.63;;;24.11;47.90
59391;BME280;53405;57.012;40.984;2022-07-29T14:04:06;100063.69;;;24.15;45.89
59391;BME280;53405;57.012;40.984;2022-07-29T14:06:54;100064.75;;;24.09;45.57
59391;BME280;53405;57.012;40.984;2022-07-29T14:09:52;100069.06;;;24.15;47.07
59391;BME280;53405;57.012;40.984;2022-07-29T14:12:39;100074.78;;;24.39;45.47
59391;BME280;53405;57.012;40.984;2022-07-29T14:15:29;100069.38;;;24.49;46.66
59391;BME280;53405;57.012;40.984;2022-07-29T14:18:16;100063.19;;;24.54;46.32
59391;BME280;53405;57.012;40.984;2022-07-29T14:21:04;100060.28;;;24.71;45.33
59391;BME280;53405;57.012;40.984;2022-07-29T14:23:51;100069.94;;;24.67;45.52
59391;BME280;53405;57.012;40.984;2022-07-29T14:26:41;100058.09;;;24.52;44.78
59391;BME280;53405;57.012;40.984;2022-07-29T14:29:29;100043.56;;;24.38;44.33
59391;BME280;53405;57.012;40.984;2022-07-29T14:32:17;100066.97;;;24.48;44.71
59391;BME280;53405;57.012;40.984;2022-07-29T14:35:05;100058.09;;;24.47;45.12
59391;BME280;53405;57.012;40.984;2022-07-29T14:40:41;100072.34;;;24.43;44.35
59391;BME280;53405;57.012;40.984;2022-07-29T14:43:28;100065.59;;;24.40;43.98
59391;BME280;53405;57.012;40.984;2022-07-29T14:49:03;100079.34;;;24.49;43.02
59391;BME280;53405;57.012;40.984;2022-07-29T14:51:52;100078.25;;;24.29;44.30
59391;BME280;53405;57.012;40.984;2022-07-29T14:54:40;100079.88;;;24.35;44.64
59391;BME280;53405;57.012;40.984;2022-07-29T14:57:28;100076.66;;;24.28;45.07
59391;BME280;53405;57.012;40.984;2022-07-29T15:00:16;100084.41;;;24.25;45.61
59391;BME280;53405;57.012;40.984;2022-07-29T15:03:04;100076.06;;;24.21;44.95
59391;BME280;53405;57.012;40.984;2022-07-29T15:05:52;100074.50;;;24.25;45.19
59391;BME280;53405;57.012;40.984;2022-07-29T15:08:40;100072.84;;;24.24;45.37
59391;BME280;53405;57.012;40.984;2022-07-29T15:11:27;100075.28;;;24.26;45.09
59391;BME280;53405;57.012;40.984;2022-07-29T15:14:15;100073.13;;;24.23;45.23
59391;BME280;53405;57.012;40.984;2022-07-29T15:17:02;100054.25;;;24.07;47.31
59391;BME280;53405;57.012;40.984;2022-07-29T15:19:50;100068.00;;;24.16;45.06
59391;BME280;53405;57.012;40.984;2022-07-29T15:22:38;100067.75;;;24.28;45.05
59391;BME280;53405;57.012;40.984;2022-07-29T15:25:26;100059.94;;;24.26;46.73
59391;BME280;53405;57.012;40.984;2022-07-29T15:28:14;100063.72;;;24.25;44.99
59391;BME280;53405;57.012;40.984;2022-07-29T15:31:01;100058.31;;;24.10;44.37